Time;durP1;ratioP1;P1;durP2;ratioP2;P2;SDS_P1;SDS_P2;PMS_P1;PMS_P2;Temp;Humidity;BMP_temperature;BMP_pressure;BME280_temperature;BME280_humidity;BME280_pressure;Samples;Min_cycle;Max_cycle;Signal;HPM_P1;HPM_P2
2021/03/19 01:22:49;;;;;;;11.00;4.70;;;;;;;;;;5980175;21;8515946;-55
2021/03/19 01:25:17;;;;;;;8.13;4.20;;;;;;;;;;6347474;22;20370;-55
2021/03/19 01:27:45;;;;;;;6.67;4.77;;;;;;;;;;6347681;22;20001;-55
2021/03/19 01:30:14;;;;;;;9.57;4.87;;;;;;;;;;6347545;22;20006;-55
2021/03/19 01:32:41;;;;;;;7.20;4.80;;;;;;;;;;6347456;22;20360;-55
2021/03/19 01:35:08;;;;;;;8.17;5.17;;;;;;;;;;6347529;22;20038;-55
2021/03/19 01:37:35;;;;;;;12.13;4.83;;;;;;;;;;6347401;22;20082;-56
2021/03/19 01:40:02;;;;;;;8.93;4.27;;;;;;;;;;6347428;22;19998;-55
2021/03/19 01:42:28;;;;;;;7.80;5.07;;;;;;;;;;6347286;22;20074;-55
2021/03/19 01:45:14;;;;;;;8.20;4.50;;;;;;;;;;6347326;22;20002;-55
2021/03/19 01:47:59;;;;;;;8.97;4.37;;;;;;;;;;6347288;22;20006;-55
2021/03/19 01:50:44;;;;;;;9.73;4.25;;;;;;;;;;6347354;22;20325;-55
2021/03/19 01:53:10;;;;;;;;;;;;;;;;;;6347765;22;20010;-55
2021/03/19 01:55:55;;;;;;;8.10;4.50;;;;;;;;;;6347195;22;19898;-55
2021/03/19 01:58:22;;;;;;;;;;;;;;;;;;6347850;22;20026;-55
2021/03/19 02:01:06;;;;;;;7.33;4.60;;;;;;;;;;6347178;22;19898;-55
2021/03/19 02:03:51;;;;;;;6.78;4.07;;;;;;;;;;6347146;22;20014;-55
2021/03/19 02:06:36;;;;;;;6.38;4.53;;;;;;;;;;6347139;22;19999;-54
2021/03/19 02:09:21;;;;;;;8.73;4.55;;;;;;;;;;6347159;22;20002;-55
2021/03/19 02:12:06;;;;;;;6.00;4.22;;;;;;;;;;6346977;22;20011;-54
2021/03/19 02:14:53;;;;;;;6.47;4.18;;;;;;;;;;6347067;22;20018;-55
2021/03/19 02:17:38;;;;;;;5.80;4.13;;;;;;;;;;6284121;22;20034;-55
2021/03/19 02:20:23;;;;;;;9.38;5.78;;;;;;;;;;6345373;22;19999;-54
2021/03/19 02:23:08;;;;;;;11.52;5.93;;;;;;;;;;6310535;22;20062;-54
2021/03/19 02:25:52;;;;;;;11.43;6.35;;;;;;;;;;6308721;22;20007;-54
2021/03/19 02:28:38;;;;;;;11.02;6.43;;;;;;;;;;6308757;22;19996;-54
2021/03/19 02:31:13;;;;;;;17.23;6.45;;;;;;;;;;6308551;22;20015;-54
2021/03/19 02:33:39;;;;;;;;;;;;;;;;;;6309182;22;20019;-54
2021/03/19 02:36:06;;;;;;;17.80;7.03;;;;;;;;;;6308768;22;19903;-54
2021/03/19 02:38:33;;;;;;;17.00;7.60;;;;;;;;;;6308676;22;20003;-54
2021/03/19 02:41:00;;;;;;;15.73;6.37;;;;;;;;;;6308877;22;20413;-54
2021/03/19 02:43:26;;;;;;;10.23;5.90;;;;;;;;;;6308362;22;20069;-54
2021/03/19 02:45:53;;;;;;;11.73;6.30;;;;;;;;;;6308559;22;20007;-54
2021/03/19 02:48:20;;;;;;;19.27;7.00;;;;;;;;;;6308408;22;19999;-54
2021/03/19 02:50:48;;;;;;;10.90;5.60;;;;;;;;;;6308419;22;20065;-54
2021/03/19 02:53:15;;;;;;;13.53;5.50;;;;;;;;;;6308479;22;20006;-54
2021/03/19 02:55:42;;;;;;;15.80;7.23;;;;;;;;;;6308466;22;20000;-54
2021/03/19 02:58:09;;;;;;;11.73;7.07;;;;;;;;;;6308315;22;20007;-54
2021/03/19 03:00:36;;;;;;;18.23;6.00;;;;;;;;;;6308348;22;19999;-54
2021/03/19 03:03:04;;;;;;;18.23;6.43;;;;;;;;;;6308306;22;20325;-54
2021/03/19 03:05:31;;;;;;;12.87;7.07;;;;;;;;;;6308798;22;19996;-54
2021/03/19 03:07:58;;;;;;;20.13;6.67;;;;;;;;;;6308329;22;20033;-54
2021/03/19 03:10:26;;;;;;;10.37;5.87;;;;;;;;;;6308148;22;20441;-54
2021/03/19 03:12:52;;;;;;;15.17;5.50;;;;;;;;;;6308266;22;20418;-54
2021/03/19 03:15:20;;;;;;;7.13;4.63;;;;;;;;;;6308244;22;20023;-54
2021/03/19 03:17:47;;;;;;;13.93;5.10;;;;;;;;;;6308165;22;20025;-54
2021/03/19 03:20:16;;;;;;;7.23;4.53;;;;;;;;;;6308081;22;20003;-54
2021/03/19 03:22:43;;;;;;;16.70;5.93;;;;;;;;;;6309295;22;20443;-54
2021/03/19 03:25:11;;;;;;;14.57;5.57;;;;;;;;;;6308232;22;19999;-54
2021/03/19 03:27:38;;;;;;;7.80;4.20;;;;;;;;;;6308198;22;20010;-54
2021/03/19 03:30:10;;;;;;;7.43;4.70;;;;;;;;;;6307891;22;20007;-54
2021/03/19 03:32:37;;;;;;;6.07;4.33;;;;;;;;;;6307932;22;20011;-54
2021/03/19 03:35:05;;;;;;;8.17;4.20;;;;;;;;;;6307508;22;20004;-54
2021/03/19 03:37:32;;;;;;;7.20;3.80;;;;;;;;;;6307940;22;20011;-54
2021/03/19 03:39:59;;;;;;;6.97;3.87;;;;;;;;;;6308043;22;19995;-53
2021/03/19 03:42:26;;;;;;;6.20;4.13;;;;;;;;;;6307863;22;20416;-53
2021/03/19 03:44:53;;;;;;;7.60;4.17;;;;;;;;;;6308056;22;20025;-53
2021/03/19 03:47:19;;;;;;;7.63;4.57;;;;;;;;;;6307855;22;20003;-53
2021/03/19 03:49:46;;;;;;;9.13;4.30;;;;;;;;;;6307639;22;20005;-54
2021/03/19 03:52:13;;;;;;;10.77;4.27;;;;;;;;;;6307792;22;20052;-54
2021/03/19 03:54:40;;;;;;;9.43;5.23;;;;;;;;;;6307938;22;20023;-53
2021/03/19 03:57:07;;;;;;;9.93;4.70;;;;;;;;;;6307815;22;20073;-53
2021/03/19 03:59:34;;;;;;;8.60;4.20;;;;;;;;;;6307905;22;20007;-54
2021/03/19 04:02:15;;;;;;;9.70;4.83;;;;;;;;;;6307700;22;20112;-54
2021/03/19 04:04:41;;;;;;;11.67;5.00;;;;;;;;;;6307761;22;20006;-54
2021/03/19 04:07:08;;;;;;;9.13;4.80;;;;;;;;;;6307648;22;20011;-54
2021/03/19 04:09:35;;;;;;;15.83;5.77;;;;;;;;;;6307578;22;20023;-54
2021/03/19 04:12:02;;;;;;;16.03;6.90;;;;;;;;;;6307448;22;20011;-53
2021/03/19 04:14:28;;;;;;;17.83;5.57;;;;;;;;;;6307604;22;19999;-53
2021/03/19 04:16:58;;;;;;;14.33;5.13;;;;;;;;;;6307719;22;20010;-54
2021/03/19 04:19:25;;;;;;;14.27;5.87;;;;;;;;;;6307607;22;20000;-54
2021/03/19 04:21:53;;;;;;;17.83;5.57;;;;;;;;;;6308502;22;20022;-54
2021/03/19 04:24:19;;;;;;;14.10;5.27;;;;;;;;;;6307651;22;20049;-54
2021/03/19 04:26:46;;;;;;;15.93;5.37;;;;;;;;;;6307653;22;20505;-54
2021/03/19 04:29:13;;;;;;;12.60;4.97;;;;;;;;;;6307623;22;20535;-53
2021/03/19 04:31:40;;;;;;;12.17;5.83;;;;;;;;;;6307419;22;20078;-53
2021/03/19 04:34:06;;;;;;;15.70;6.13;;;;;;;;;;6305909;22;20495;-53
2021/03/19 04:36:41;;;;;;;10.70;5.00;;;;;;;;;;6307547;22;20039;-53
2021/03/19 04:39:10;;;;;;;15.95;5.13;;;;;;;;;;6307482;22;20074;-53
2021/03/19 04:41:37;;;;;;;17.07;4.80;;;;;;;;;;6307265;22;20080;-53
2021/03/19 04:44:04;;;;;;;15.37;5.20;;;;;;;;;;6307464;22;20005;-53
2021/03/19 04:46:31;;;;;;;14.67;5.60;;;;;;;;;;6307155;22;20011;-54
2021/03/19 04:48:58;;;;;;;8.20;4.30;;;;;;;;;;6307521;22;20021;-53
2021/03/19 04:51:25;;;;;;;15.00;5.13;;;;;;;;;;6307091;22;20043;-53
2021/03/19 04:53:55;;;;;;;12.57;5.07;;;;;;;;;;6307287;22;20418;-53
2021/03/19 04:56:22;;;;;;;12.77;4.90;;;;;;;;;;6307419;22;20014;-54
2021/03/19 04:58:49;;;;;;;9.20;4.67;;;;;;;;;;6307374;22;20074;-53
2021/03/19 05:01:16;;;;;;;13.70;5.20;;;;;;;;;;6307142;22;20011;-53
2021/03/19 05:03:43;;;;;;;15.20;5.73;;;;;;;;;;6307251;22;20436;-53
2021/03/19 05:06:10;;;;;;;19.17;7.00;;;;;;;;;;6307304;22;20003;-53
2021/03/19 05:08:37;;;;;;;11.93;5.33;;;;;;;;;;6307264;22;19999;-53
2021/03/19 05:11:04;;;;;;;13.73;5.40;;;;;;;;;;6307032;22;20101;-53
2021/03/19 05:13:31;;;;;;;10.50;5.00;;;;;;;;;;6307133;22;20449;-53
2021/03/19 05:15:57;;;;;;;14.17;5.53;;;;;;;;;;6307167;22;20061;-53
2021/03/19 05:18:24;;;;;;;14.50;5.30;;;;;;;;;;6307315;22;20003;-53
2021/03/19 05:20:52;;;;;;;37.43;7.00;;;;;;;;;;6308147;22;20003;-53
2021/03/19 05:23:21;;;;;;;21.13;4.40;;;;;;;;;;6307127;22;20011;-53
2021/03/19 05:25:48;;;;;;;10.37;5.43;;;;;;;;;;6307126;22;20074;-53
2021/03/19 05:28:15;;;;;;;7.93;3.70;;;;;;;;;;6307192;22;20010;-53
2021/03/19 05:30:42;;;;;;;10.97;4.03;;;;;;;;;;6307091;22;20045;-53
2021/03/19 05:33:09;;;;;;;13.27;4.33;;;;;;;;;;6307015;22;20000;-53
2021/03/19 05:35:36;;;;;;;13.80;4.43;;;;;;;;;;6307116;22;20007;-53
2021/03/19 05:38:03;;;;;;;14.83;5.70;;;;;;;;;;6307137;22;20062;-53
2021/03/19 05:40:44;;;;;;;14.00;5.17;;;;;;;;;;6307064;22;20294;-53
2021/03/19 05:43:23;;;;;;;11.30;4.27;;;;;;;;;;6307091;22;20005;-53
2021/03/19 05:45:58;;;;;;;8.33;4.17;;;;;;;;;;6307081;22;20217;-53
2021/03/19 05:48:27;;;;;;;14.67;4.33;;;;;;;;;;6307088;22;20025;-53
2021/03/19 05:50:54;;;;;;;11.97;4.57;;;;;;;;;;6306817;22;20263;-53
2021/03/19 05:53:23;;;;;;;21.30;5.90;;;;;;;;;;6307106;22;19999;-53
2021/03/19 05:55:50;;;;;;;13.60;6.50;;;;;;;;;;6307022;22;20457;-53
2021/03/19 05:58:29;;;;;;;12.53;5.60;;;;;;;;;;6308305;22;20325;-53
2021/03/19 06:00:56;;;;;;;10.30;4.83;;;;;;;;;;6309022;22;20023;-53
2021/03/19 06:03:23;;;;;;;12.00;5.63;;;;;;;;;;6307320;22;20003;-53
2021/03/19 06:06:02;;;;;;;9.93;4.20;;;;;;;;;;6308868;22;20361;-53
2021/03/19 06:08:31;;;;;;;14.37;5.37;;;;;;;;;;6308749;22;20220;-53
2021/03/19 06:11:06;;;;;;;15.80;5.30;;;;;;;;;;6308662;22;20445;-54
2021/03/19 06:13:44;;;;;;;18.15;6.55;;;;;;;;;;6308918;22;20208;-54
2021/03/19 06:16:21;;;;;;;14.23;6.73;;;;;;;;;;6308805;22;20003;-53
2021/03/19 06:18:49;;;;;;;15.23;4.80;;;;;;;;;;6308885;22;20212;-53
2021/03/19 06:21:31;;;;;;;11.50;5.43;;;;;;;;;;6309768;22;20659;-53
2021/03/19 06:24:12;;;;;;;14.33;6.30;;;;;;;;;;6308709;22;20251;-53
2021/03/19 06:26:40;;;;;;;12.60;5.10;;;;;;;;;;6308711;22;20638;-53
2021/03/19 06:29:24;;;;;;;13.80;5.43;;;;;;;;;;6308599;22;20224;-53
2021/03/19 06:32:14;;;;;;;12.60;5.73;;;;;;;;;;6308393;22;20248;-53
2021/03/19 06:35:10;;;;;;;12.83;4.73;;;;;;;;;;6293335;22;20231;-53
2021/03/19 06:37:37;;;;;;;16.53;5.60;;;;;;;;;;6282744;22;20263;-53
2021/03/19 06:40:23;;;;;;;10.73;4.60;;;;;;;;;;6308708;22;20200;-53
2021/03/19 06:42:49;;;;;;;15.02;5.32;;;;;;;;;;6308635;22;20258;-53
2021/03/19 06:45:17;;;;;;;12.83;4.83;;;;;;;;;;6308542;22;20010;-53
2021/03/19 06:47:46;;;;;;;17.40;5.83;;;;;;;;;;6308476;22;20212;-53
2021/03/19 06:50:14;;;;;;;11.33;4.73;;;;;;;;;;6308403;22;20374;-53
2021/03/19 06:52:41;;;;;;;14.13;4.37;;;;;;;;;;6308409;22;20228;-53
2021/03/19 06:55:27;;;;;;;9.47;4.10;;;;;;;;;;6308560;22;20291;-53
2021/03/19 06:57:54;;;;;;;16.50;4.97;;;;;;;;;;6308421;22;20224;-53
2021/03/19 07:00:37;;;;;;;12.40;4.47;;;;;;;;;;6308365;22;20220;-53
2021/03/19 07:03:14;;;;;;;10.60;4.83;;;;;;;;;;6308249;22;20300;-53
2021/03/19 07:06:05;;;;;;;9.87;4.47;;;;;;;;;;6308393;22;20240;-53
2021/03/19 07:08:38;;;;;;;9.87;4.30;;;;;;;;;;6308209;22;20213;-53
2021/03/19 07:11:08;;;;;;;13.93;4.70;;;;;;;;;;6308169;22;20240;-53
2021/03/19 07:13:47;;;;;;;14.93;5.13;;;;;;;;;;6308332;22;20213;-53
2021/03/19 07:16:16;;;;;;;18.90;5.53;;;;;;;;;;6308141;22;20220;-53
2021/03/19 07:18:43;;;;;;;14.30;4.90;;;;;;;;;;6308190;22;20216;-53
2021/03/19 07:21:26;;;;;;;11.10;4.50;;;;;;;;;;6309169;22;20208;-54
2021/03/19 07:24:07;;;;;;;14.40;5.13;;;;;;;;;;6308130;22;20223;-53
2021/03/19 07:26:35;;;;;;;9.97;4.43;;;;;;;;;;6308139;22;20213;-53
2021/03/19 07:29:05;;;;;;;10.00;4.10;;;;;;;;;;6308182;22;20228;-53
2021/03/19 07:31:35;;;;;;;10.10;3.57;;;;;;;;;;6307875;22;20248;-53
2021/03/19 07:34:20;;;;;;;12.63;4.80;;;;;;;;;;6308167;22;20689;-53
2021/03/19 07:36:52;;;;;;;13.75;4.38;;;;;;;;;;6307997;22;20216;-52
2021/03/19 07:39:37;;;;;;;12.93;4.13;;;;;;;;;;6308098;22;20012;-53
2021/03/19 07:42:23;;;;;;;12.23;6.05;;;;;;;;;;6307857;22;20697;-53
2021/03/19 07:45:08;;;;;;;9.87;4.83;;;;;;;;;;6245753;22;20006;-54
2021/03/19 07:47:35;;;;;;;10.10;4.22;;;;;;;;;;6307896;22;20543;-53
2021/03/19 07:50:20;;;;;;;12.93;4.23;;;;;;;;;;6307809;22;20040;-54
2021/03/19 07:53:03;;;;;;;9.73;4.03;;;;;;;;;;6307778;22;20551;-53
2021/03/19 07:55:30;;;;;;;7.90;3.73;;;;;;;;;;6307905;22;19999;-53
2021/03/19 07:58:15;;;;;;;10.33;4.50;;;;;;;;;;6307755;22;20223;-53
2021/03/19 08:00:45;;;;;;;8.13;3.90;;;;;;;;;;6307732;22;20212;-53
2021/03/19 08:03:18;;;;;;;15.07;5.43;;;;;;;;;;6307831;22;19995;-53
2021/03/19 08:05:53;;;;;;;15.57;4.97;;;;;;;;;;6307762;22;20244;-53
2021/03/19 08:08:39;;;;;;;11.43;4.30;;;;;;;;;;6307657;22;20235;-53
2021/03/19 08:11:05;;;;;;;;;;;;;;;;;;6307980;22;20377;-53
2021/03/19 08:13:39;;;;;;;9.50;3.27;;;;;;;;;;6307776;22;19906;-53
2021/03/19 08:16:19;;;;;;;10.63;3.07;;;;;;;;;;6307635;22;20250;-53
2021/03/19 08:19:04;;;;;;;6.97;3.10;;;;;;;;;;6307740;22;20215;-53
2021/03/19 08:21:31;;;;;;;13.85;2.75;;;;;;;;;;6308323;22;20236;-53
2021/03/19 08:24:16;;;;;;;13.23;3.20;;;;;;;;;;6307572;22;20071;-53
2021/03/19 08:26:48;;;;;;;9.82;3.60;;;;;;;;;;6307663;22;20283;-53
2021/03/19 08:29:28;;;;;;;8.63;4.23;;;;;;;;;;6307467;22;20146;-53
2021/03/19 08:31:57;;;;;;;13.27;3.70;;;;;;;;;;6307247;22;20252;-53
2021/03/19 08:34:24;;;;;;;11.27;3.97;;;;;;;;;;6307446;22;20361;-53
2021/03/19 08:36:53;;;;;;;16.33;4.80;;;;;;;;;;6307487;22;20536;-53
2021/03/19 08:39:31;;;;;;;14.97;4.23;;;;;;;;;;6307528;22;20296;-53
2021/03/19 08:42:04;;;;;;;7.97;2.87;;;;;;;;;;6307443;22;20225;-54
2021/03/19 08:44:34;;;;;;;9.80;3.70;;;;;;;;;;6307433;22;20517;-53
2021/03/19 08:47:22;;;;;;;9.27;4.37;;;;;;;;;;6307403;22;20220;-53
2021/03/19 08:49:54;;;;;;;9.60;4.27;;;;;;;;;;6307312;22;20283;-53
2021/03/19 08:52:27;;;;;;;11.83;3.57;;;;;;;;;;6307151;22;20248;-53
2021/03/19 08:55:12;;;;;;;10.13;3.23;;;;;;;;;;6305799;22;20255;-53
2021/03/19 08:57:42;;;;;;;8.10;3.47;;;;;;;;;;6307281;22;20216;-53
2021/03/19 09:00:27;;;;;;;7.13;3.40;;;;;;;;;;6307206;22;20379;-53
2021/03/19 09:02:56;;;;;;;15.80;3.30;;;;;;;;;;6307540;22;20216;-53
2021/03/19 09:05:28;;;;;;;12.47;3.10;;;;;;;;;;6307352;22;20007;-53
2021/03/19 09:08:15;;;;;;;9.40;3.93;;;;;;;;;;6307252;22;20690;-53
2021/03/19 09:10:42;;;;;;;9.83;3.57;;;;;;;;;;6307515;22;20559;-52
2021/03/19 09:13:10;;;;;;;5.90;2.87;;;;;;;;;;6307180;22;20220;-52
2021/03/19 09:15:41;;;;;;;13.97;4.37;;;;;;;;;;6307294;22;20515;-53
2021/03/19 09:21:28;;;;;;;8.60;3.50;;;;;;;;;;6308287;22;20821;-54
2021/03/19 09:24:01;;;;;;;6.57;3.00;;;;;;;;;;6276194;22;20232;-53
2021/03/19 09:26:34;;;;;;;7.60;3.23;;;;;;;;;;6275936;22;20227;-53
2021/03/19 09:29:03;;;;;;;8.40;3.30;;;;;;;;;;6276541;22;20524;-53
2021/03/19 09:31:30;;;;;;;7.10;3.50;;;;;;;;;;6275880;22;20253;-53
2021/03/19 09:33:59;;;;;;;10.53;3.10;;;;;;;;;;6278041;22;20262;-53
2021/03/19 09:36:44;;;;;;;5.97;3.17;;;;;;;;;;6278075;22;20213;-53
2021/03/19 09:39:31;;;;;;;8.80;3.92;;;;;;;;;;6278027;22;20216;-53
2021/03/19 09:41:57;;;;;;;12.83;2.90;;;;;;;;;;6278113;22;20003;-53
2021/03/19 09:44:28;;;;;;;11.10;4.67;;;;;;;;;;6278003;22;20208;-53
2021/03/19 09:47:00;;;;;;;13.30;4.10;;;;;;;;;;6277956;22;20217;-53
2021/03/19 09:49:28;;;;;;;8.53;3.00;;;;;;;;;;6251025;22;20714;-53
2021/03/19 09:51:55;;;;;;;11.33;3.10;;;;;;;;;;6277825;22;20244;-53
2021/03/19 09:54:30;;;;;;;10.90;2.93;;;;;;;;;;6278002;22;20209;-53
2021/03/19 09:57:05;;;;;;;9.53;2.70;;;;;;;;;;6277874;22;20312;-53
2021/03/19 09:59:36;;;;;;;8.75;2.92;;;;;;;;;;6277798;22;20275;-53
2021/03/19 10:02:21;;;;;;;6.57;2.43;;;;;;;;;;6277717;22;20031;-53
2021/03/19 10:04:48;;;;;;;7.07;2.50;;;;;;;;;;6277703;22;20220;-53
2021/03/19 10:07:27;;;;;;;5.27;2.57;;;;;;;;;;6278021;22;20004;-53
2021/03/19 10:09:56;;;;;;;10.97;2.63;;;;;;;;;;6277717;22;20528;-53
2021/03/19 10:12:28;;;;;;;7.60;2.60;;;;;;;;;;6277641;22;20229;-53
2021/03/19 10:14:56;;;;;;;8.27;2.50;;;;;;;;;;6277853;22;20219;-53
2021/03/19 10:17:29;;;;;;;7.60;2.60;;;;;;;;;;6277830;22;20601;-53
2021/03/19 10:19:58;;;;;;;8.53;2.30;;;;;;;;;;6277650;22;20213;-53
2021/03/19 10:22:30;;;;;;;15.77;2.90;;;;;;;;;;6293851;22;20605;-53
2021/03/19 10:25:12;;;;;;;10.63;2.27;;;;;;;;;;6308792;22;20212;-53
2021/03/19 10:27:42;;;;;;;8.23;2.30;;;;;;;;;;6308787;22;20214;-53
2021/03/19 10:30:11;;;;;;;13.17;2.37;;;;;;;;;;6308484;22;20229;-53
2021/03/19 10:32:38;;;;;;;5.77;2.57;;;;;;;;;;6308260;22;20220;-54
2021/03/19 10:35:18;;;;;;;6.73;2.13;;;;;;;;;;6308502;22;20522;-53
2021/03/19 10:37:51;;;;;;;7.60;2.63;;;;;;;;;;6308891;22;20212;-53
2021/03/19 10:40:38;;;;;;;7.03;2.27;;;;;;;;;;6308547;22;20216;-52
2021/03/19 10:43:10;;;;;;;8.13;2.50;;;;;;;;;;6308291;22;20221;-53
2021/03/19 10:45:49;;;;;;;5.10;2.23;;;;;;;;;;6308675;22;20208;-53
2021/03/19 10:48:28;;;;;;;5.90;2.43;;;;;;;;;;6308438;22;20252;-53
2021/03/19 10:51:01;;;;;;;5.47;2.17;;;;;;;;;;6308420;22;20262;-53
2021/03/19 10:53:40;;;;;;;8.57;2.70;;;;;;;;;;6308325;22;20285;-53
2021/03/19 10:56:08;;;;;;;9.70;2.50;;;;;;;;;;6308358;22;20223;-53
2021/03/19 10:58:37;;;;;;;7.83;2.10;;;;;;;;;;6308607;22;20212;-53
2021/03/19 11:01:23;;;;;;;8.50;2.10;;;;;;;;;;6308249;22;20531;-54
2021/03/19 11:03:50;;;;;;;6.63;2.30;;;;;;;;;;6308267;22;20754;-54
2021/03/19 11:06:32;;;;;;;4.63;2.13;;;;;;;;;;6308222;22;20216;-53
2021/03/19 11:09:25;;;;;;;5.60;2.17;;;;;;;;;;6308337;22;20219;-53
2021/03/19 11:12:17;;;;;;;7.13;2.07;;;;;;;;;;6301818;22;20587;-53
2021/03/19 11:14:57;;;;;;;11.00;2.33;;;;;;;;;;6308202;22;20274;-54
2021/03/19 11:17:24;;;;;;;6.17;2.50;;;;;;;;;;6308185;22;20292;-51
2021/03/19 11:20:01;;;;;;;7.60;2.10;;;;;;;;;;6308160;22;20212;-52
2021/03/19 11:22:41;;;;;;;7.27;2.30;;;;;;;;;;6309018;22;20319;-52
2021/03/19 11:25:26;;;;;;;8.93;2.30;;;;;;;;;;6308011;22;20568;-52
2021/03/19 11:27:53;;;;;;;9.57;2.50;;;;;;;;;;6308124;22;20573;-51
2021/03/19 11:30:29;;;;;;;5.70;2.40;;;;;;;;;;6308016;22;20037;-52
2021/03/19 11:33:17;;;;;;;9.70;2.27;;;;;;;;;;6307938;22;20751;-52
2021/03/19 11:35:44;;;;;;;5.97;2.43;;;;;;;;;;6307970;22;20547;-52
2021/03/19 11:38:29;;;;;;;7.17;2.33;;;;;;;;;;6308172;22;20220;-51
2021/03/19 11:40:56;;;;;;;13.25;2.03;;;;;;;;;;6307901;22;20224;-51
2021/03/19 11:43:24;;;;;;;6.83;2.60;;;;;;;;;;6307704;22;19999;-51
2021/03/19 11:45:51;;;;;;;5.33;2.30;;;;;;;;;;6307881;22;20283;-51
2021/03/19 11:48:27;;;;;;;6.10;2.10;;;;;;;;;;6308012;22;20213;-51
2021/03/19 11:50:56;;;;;;;5.33;1.80;;;;;;;;;;6307452;22;20327;-51
2021/03/19 11:53:28;;;;;;;6.30;2.03;;;;;;;;;;6307907;22;20243;-51
2021/03/19 11:55:56;;;;;;;5.87;2.10;;;;;;;;;;6307295;22;20216;-51
2021/03/19 11:58:25;;;;;;;7.87;2.50;;;;;;;;;;6307532;22;20212;-52
2021/03/19 12:00:52;;;;;;;6.63;2.27;;;;;;;;;;6307732;22;20251;-51
2021/03/19 12:03:35;;;;;;;7.70;2.37;;;;;;;;;;6307359;22;20220;-51
2021/03/19 12:06:02;;;;;;;5.30;2.53;;;;;;;;;;6307752;22;20255;-51
2021/03/19 12:08:32;;;;;;;5.43;2.30;;;;;;;;;;6307565;22;20236;-51
2021/03/19 12:10:59;;;;;;;11.57;2.77;;;;;;;;;;6307280;22;20233;-53
2021/03/19 12:13:26;;;;;;;9.80;2.57;;;;;;;;;;6307714;22;20224;-53
2021/03/19 12:15:53;;;;;;;10.13;2.67;;;;;;;;;;6307543;22;20322;-53
2021/03/19 12:18:21;;;;;;;9.43;2.47;;;;;;;;;;6307431;22;20216;-53
2021/03/19 12:20:48;;;;;;;5.30;2.10;;;;;;;;;;6307402;22;20291;-53
2021/03/19 12:23:16;;;;;;;5.17;2.17;;;;;;;;;;6308672;22;20252;-55
2021/03/19 12:25:42;;;;;;;4.43;2.30;;;;;;;;;;6307623;22;20261;-54
2021/03/19 12:28:12;;;;;;;7.43;2.60;;;;;;;;;;6307390;22;20285;-53
2021/03/19 12:30:39;;;;;;;3.90;2.20;;;;;;;;;;6307261;22;20327;-53
2021/03/19 12:33:06;;;;;;;10.63;2.60;;;;;;;;;;6307383;22;20539;-54
2021/03/19 12:35:33;;;;;;;4.63;2.23;;;;;;;;;;6307468;22;20658;-51
2021/03/19 12:38:00;;;;;;;8.70;3.10;;;;;;;;;;6307480;22;20242;-51
2021/03/19 12:40:28;;;;;;;11.03;2.60;;;;;;;;;;6307029;22;20582;-52
2021/03/19 12:42:58;;;;;;;4.67;1.97;;;;;;;;;;6307329;22;20221;-51
2021/03/19 12:45:27;;;;;;;13.93;3.03;;;;;;;;;;6307749;22;20239;-52
2021/03/19 12:47:55;;;;;;;5.90;2.73;;;;;;;;;;6307094;22;20244;-51
2021/03/19 12:50:24;;;;;;;9.10;2.23;;;;;;;;;;6307258;22;20215;-52
2021/03/19 12:52:51;;;;;;;7.40;2.87;;;;;;;;;;6307224;22;20232;-51
2021/03/19 12:55:17;;;;;;;11.60;2.70;;;;;;;;;;6307597;22;20677;-51
2021/03/19 12:57:44;;;;;;;10.17;2.87;;;;;;;;;;6307317;22;20247;-51
2021/03/19 13:00:16;;;;;;;9.67;2.60;;;;;;;;;;6307132;22;20273;-51
2021/03/19 13:02:43;;;;;;;7.83;2.27;;;;;;;;;;6307148;22;20599;-52
2021/03/19 13:05:10;;;;;;;8.30;2.80;;;;;;;;;;6306940;22;20233;-51
2021/03/19 13:07:37;;;;;;;13.40;2.40;;;;;;;;;;6307253;22;20220;-52
2021/03/19 13:10:04;;;;;;;11.20;2.50;;;;;;;;;;6306916;22;20241;-51
2021/03/19 13:12:31;;;;;;;7.23;2.77;;;;;;;;;;6307152;22;20216;-51
2021/03/19 13:14:57;;;;;;;11.03;2.43;;;;;;;;;;6307109;22;20236;-51
2021/03/19 13:17:26;;;;;;;9.60;2.37;;;;;;;;;;6307087;22;20278;-51
2021/03/19 13:19:53;;;;;;;5.57;2.47;;;;;;;;;;6306884;22;20229;-51
2021/03/19 13:22:20;;;;;;;8.73;3.27;;;;;;;;;;6307930;22;20236;-51
2021/03/19 13:24:47;;;;;;;17.20;3.40;;;;;;;;;;6306972;22;20274;-51
2021/03/19 13:27:13;;;;;;;10.00;3.13;;;;;;;;;;6307357;22;20208;-52
2021/03/19 13:29:40;;;;;;;8.33;3.27;;;;;;;;;;6307343;22;20304;-51
2021/03/19 13:32:07;;;;;;;9.57;3.27;;;;;;;;;;6306818;22;20240;-54
2021/03/19 13:34:34;;;;;;;10.23;2.70;;;;;;;;;;6306912;22;20667;-54
2021/03/19 13:37:01;;;;;;;8.13;2.67;;;;;;;;;;6307044;22;20216;-53
2021/03/19 13:39:30;;;;;;;11.13;3.00;;;;;;;;;;6307512;22;20216;-54
2021/03/19 13:41:57;;;;;;;18.93;3.40;;;;;;;;;;6306928;22;20299;-52
2021/03/19 13:44:24;;;;;;;9.57;2.60;;;;;;;;;;6307175;22;20223;-51
2021/03/19 13:46:50;;;;;;;15.07;3.10;;;;;;;;;;6307040;22;20211;-52
2021/03/19 13:49:17;;;;;;;9.03;2.70;;;;;;;;;;6307065;22;20243;-51
2021/03/19 13:51:44;;;;;;;9.10;2.57;;;;;;;;;;6306653;22;20252;-52
2021/03/19 13:54:11;;;;;;;7.10;2.57;;;;;;;;;;6306722;22;20582;-52
2021/03/19 13:56:38;;;;;;;7.77;2.23;;;;;;;;;;6306933;22;20606;-52
2021/03/19 13:59:05;;;;;;;8.43;3.20;;;;;;;;;;6307075;22;20690;-52
2021/03/19 14:01:31;;;;;;;12.70;2.90;;;;;;;;;;6306935;22;20704;-52
2021/03/19 14:03:58;;;;;;;9.70;2.83;;;;;;;;;;6306865;22;20248;-52
2021/03/19 14:06:28;;;;;;;11.30;2.50;;;;;;;;;;6306768;22;20010;-52
2021/03/19 14:08:55;;;;;;;7.10;2.23;;;;;;;;;;6306856;22;20330;-51
2021/03/19 14:11:22;;;;;;;9.33;2.60;;;;;;;;;;6306877;22;20007;-52
2021/03/19 14:13:49;;;;;;;6.83;3.10;;;;;;;;;;6306742;22;19999;-52
2021/03/19 14:16:16;;;;;;;10.93;3.07;;;;;;;;;;6306897;22;20013;-52
2021/03/19 14:18:42;;;;;;;11.33;2.97;;;;;;;;;;6308232;22;20002;-52
2021/03/19 14:21:10;;;;;;;8.30;2.47;;;;;;;;;;6308695;22;20438;-52
2021/03/19 14:23:37;;;;;;;13.00;3.40;;;;;;;;;;6309651;22;20020;-52
2021/03/19 14:26:05;;;;;;;11.33;2.70;;;;;;;;;;6308795;22;20161;-52
2021/03/19 14:28:34;;;;;;;6.57;3.00;;;;;;;;;;6308798;22;20422;-52
2021/03/19 14:31:00;;;;;;;6.63;2.53;;;;;;;;;;6308575;22;20094;-52
2021/03/19 14:33:28;;;;;;;4.60;2.20;;;;;;;;;;6308516;22;19999;-52
2021/03/19 14:35:56;;;;;;;7.60;2.30;;;;;;;;;;6308768;22;20003;-52
2021/03/19 14:38:23;;;;;;;11.20;3.13;;;;;;;;;;6308524;22;20010;-52
2021/03/19 14:40:51;;;;;;;8.97;2.67;;;;;;;;;;6308429;22;20003;-52
2021/03/19 14:43:18;;;;;;;9.97;3.30;;;;;;;;;;6308477;22;20003;-52
2021/03/19 14:45:45;;;;;;;7.00;3.10;;;;;;;;;;6308397;22;20118;-52
2021/03/19 14:48:18;;;;;;;9.13;3.03;;;;;;;;;;6308624;22;19999;-52
2021/03/19 14:50:45;;;;;;;5.80;2.23;;;;;;;;;;6308466;22;20009;-52
2021/03/19 14:53:12;;;;;;;5.70;2.50;;;;;;;;;;6308428;22;20011;-54
2021/03/19 14:55:39;;;;;;;7.57;2.80;;;;;;;;;;6308673;22;20000;-54
2021/03/19 14:58:07;;;;;;;5.70;2.00;;;;;;;;;;6308409;22;20004;-54
2021/03/19 15:00:38;;;;;;;7.13;2.23;;;;;;;;;;6308283;22;20015;-54
2021/03/19 15:03:06;;;;;;;9.60;2.53;;;;;;;;;;6308092;22;20026;-54
2021/03/19 15:05:33;;;;;;;7.47;2.40;;;;;;;;;;6308438;22;20010;-54
2021/03/19 15:08:00;;;;;;;6.17;2.27;;;;;;;;;;6308181;22;20023;-54
2021/03/19 15:10:28;;;;;;;11.17;3.20;;;;;;;;;;6307855;22;20010;-54
2021/03/19 15:12:55;;;;;;;6.93;2.47;;;;;;;;;;6308149;22;20019;-54
2021/03/19 15:15:22;;;;;;;5.87;2.27;;;;;;;;;;6308226;22;20326;-55
2021/03/19 15:17:49;;;;;;;5.73;2.30;;;;;;;;;;6308022;22;20031;-54
2021/03/19 15:20:23;;;;;;;10.93;2.70;;;;;;;;;;6308028;22;20000;-54
2021/03/19 15:22:49;;;;;;;8.53;2.40;;;;;;;;;;6309052;22;20023;-54
2021/03/19 15:25:16;;;;;;;5.20;2.30;;;;;;;;;;6308115;22;20053;-54
2021/03/19 15:27:43;;;;;;;6.57;2.50;;;;;;;;;;6308157;22;20449;-54
2021/03/19 15:30:13;;;;;;;8.90;2.93;;;;;;;;;;6307881;22;20483;-54
2021/03/19 15:32:40;;;;;;;8.23;2.60;;;;;;;;;;6307768;22;20039;-55
2021/03/19 15:35:08;;;;;;;6.70;2.40;;;;;;;;;;6307717;22;20007;-54
2021/03/19 15:37:35;;;;;;;6.70;2.20;;;;;;;;;;6307939;22;20007;-55
2021/03/19 15:40:02;;;;;;;10.93;2.63;;;;;;;;;;6308014;22;20079;-54
2021/03/19 15:42:29;;;;;;;7.60;3.00;;;;;;;;;;6308054;22;20038;-54
2021/03/19 15:44:55;;;;;;;10.30;2.83;;;;;;;;;;6308095;22;20002;-55
2021/03/19 15:47:22;;;;;;;5.20;2.60;;;;;;;;;;6307871;22;20295;-54
2021/03/19 15:49:49;;;;;;;10.17;3.13;;;;;;;;;;6307692;22;20076;-54
2021/03/19 15:52:16;;;;;;;6.97;2.47;;;;;;;;;;6307577;22;20018;-54
2021/03/19 15:54:43;;;;;;;7.17;2.50;;;;;;;;;;6307659;22;19995;-54
2021/03/19 15:57:09;;;;;;;10.03;2.20;;;;;;;;;;6307699;22;20083;-55
2021/03/19 15:59:36;;;;;;;11.77;2.73;;;;;;;;;;6307843;22;20414;-55
2021/03/19 16:02:03;;;;;;;8.53;3.33;;;;;;;;;;6307590;22;20033;-55
2021/03/19 16:04:30;;;;;;;7.03;2.40;;;;;;;;;;6307705;22;20316;-54
2021/03/19 16:06:56;;;;;;;6.07;2.67;;;;;;;;;;6307687;22;20061;-55
2021/03/19 16:09:23;;;;;;;4.93;2.67;;;;;;;;;;6307853;22;20019;-54
2021/03/19 16:11:50;;;;;;;7.57;2.73;;;;;;;;;;6307443;22;20033;-55
2021/03/19 16:14:17;;;;;;;11.50;3.40;;;;;;;;;;6307821;22;20006;-55
2021/03/19 16:16:44;;;;;;;5.07;2.70;;;;;;;;;;6307672;22;20057;-55
2021/03/19 16:19:11;;;;;;;6.03;2.93;;;;;;;;;;6307701;22;19999;-55
2021/03/19 16:21:38;;;;;;;7.50;2.60;;;;;;;;;;6307270;22;20007;-55
2021/03/19 16:24:05;;;;;;;5.33;2.77;;;;;;;;;;6308307;22;20011;-54
2021/03/19 16:26:32;;;;;;;4.10;2.50;;;;;;;;;;6307607;22;20049;-55